RJGGRJOR

Guest
Details From RJGG - CHUBU CENTRAIR INTL
To RJOR - TOTTORI
Flight Number -
Tags generated
Created
Modified
Stats Distance 136 nm / 252 km
Max Altitude 16,800 ft / 5,121 m
Waypoints 3
Social Downloads 1
Likes 0
Share VATSIM

Download

Looking for another format? Having issues loading an existing format? Contact us
Advertisement - Login to hide

Notes

Basic altitude profile: - Ascent Rate: 2500ft/min - Ascent Speed: 250kts - Cruise Altitude: 35000ft - Cruise Speed: 420kts - Descent Rate: 1500ft/min - Descent Speed: 250kts Options: - Use NATs: yes - Use PACOTS: yes - Use low airways: yes - Use high airways: no

Route

RJGG TTE24 RJOR

ID Type Via Altitude Latitude Longitude Leg Dist Tot Dist Heading (true) Name
O RJGG APT - 0 ft / 0 m 34.85841˚ 136.80541˚ - 0 nm - CHUBU CENTRAIR INTL
TTE24 FIX - 16,800 ft / 5,121 m 35.19825˚ 135.71399˚ 57 nm 57 nm 291° / 291° -
O RJOR APT - 0 ft / 0 m 35.53005˚ 134.16505˚ 78 nm 135 nm 285° / 284° TOTTORI

Altitude Profile

Advertisement - Login to hide

RJGG

Details ICAO RJGG (NGO)
Name CHUBU CENTRAIR INTL
Region Japan
Timezone Asia/Tokyo (UTC+9.0)
Stats Elevation 15 ft / 5 m (AMSL)
Location 34.858414° 136.805408°
Runways 1
Magnetic Variation 7.581° W

METAR

RJGG 171000Z 29019KT 9999 FEW020 06/01 Q1021 BECMG 30008KT

Decode

TAF

TAF RJGG 170505Z 1706/1812 31023KT 9999 FEW020 BECMG 1710/1712 32010KT

Decode

Departure Runways

ID Width Length Bearing (true) Bearing (mag) Surface Threshold Offset Overrun Length
18 197 ft / 60 m 11,511 ft / 3,509 m 168.81° 176.39° Asphalt 0 ft / 0 m 197 ft / 60 m
36 197 ft / 60 m 11,511 ft / 3,509 m 348.81° 356.39° Asphalt 0 ft / 0 m 197 ft / 60 m

RJOR

Details ICAO RJOR (TTJ)
Name TOTTORI
Region Japan
Timezone Asia/Tokyo (UTC+9.0)
Stats Elevation 65 ft / 20 m (AMSL)
Location 35.530048° 134.165050°
Runways 1
Magnetic Variation 7.994° W

METAR

RJOR 171000Z 22006KT 9999 FEW020 SCT030 01/M04 Q1024

Decode

TAF

Not found

Destination Runways

ID Width Length Bearing (true) Bearing (mag) Surface Threshold Offset Overrun Length
10 150 ft / 46 m 6,550 ft / 1,996 m 93.80° 101.79° Asphalt 0 ft / 0 m 190 ft / 58 m
28 150 ft / 46 m 6,550 ft / 1,996 m 273.81° 281.80° Asphalt 0 ft / 0 m 190 ft / 58 m